Bavaria — V2GX5 — position and weather

sailwx.info

Track history (hours):
 
Tides and Currents Weather Stations Pressure Air Temp Water Temp Dewpoint Dewpoint Depression Visibility Wind Speed Wind Dir Waves Ship Positions

Bavaria

Last reported at 2017-Oct-19 00:46 UTC. Time now 2017-Oct-19 03:46 UTC.
Position N 36°47' E 020°27'.

Length 159 m; draft 9.5 m.

Type: Ship (hazmat cat A). MMSI: 305192000.

Date/timePositionNaut miles runAvg speedWind from/ knotsBaromVisibWave heightAir tempDewpointWater temp
2017-Oct-19 00:46N 36°47' E 020°27'313.6
2017-Oct-19 00:30N 36°48' E 020°23'713.4
2017-Oct-19 00:00N 36°49' E 020°15'713.5
2017-Oct-18 23:31N 36°51' E 020°07'713.7
2017-Oct-18 23:00N 36°53' E 019°59'1013.7
2017-Oct-18 22:18N 36°55' E 019°47'713.6
2017-Oct-18 21:46N 36°57' E 019°38'413.8
2017-Oct-18 21:31N 36°58' E 019°34'713.9
2017-Oct-18 21:00N 36°60' E 019°25'714.4
2017-Oct-18 20:30N 37°02' E 019°17'814.8
2017-Oct-18 19:57N 37°05' E 019°07'1614.5
2017-Oct-18 18:50N 37°09' E 018°48'714.2
2017-Oct-18 18:20N 37°11' E 018°39'514.3
2017-Oct-18 18:00N 37°13' E 018°33'814.2
2017-Oct-18 17:26N 37°15' E 018°23'913.9
2017-Oct-18 16:48N 37°17' E 018°13'11712.0
2017-Oct-18 07:01N 37°53' E 015°52'012.1
2017-Oct-18 07:00N 37°53' E 015°52'612.0
2017-Oct-18 06:29N 37°54' E 015°44'711.9
2017-Oct-18 05:51N 37°60' E 015°37'513.3
2017-Oct-18 05:30N 38°04' E 015°35'612.8
2017-Oct-18 05:00N 38°11' E 015°36'5 9.7
2017-Oct-18 04:30N 38°15' E 015°38'5 9.4
2017-Oct-18 04:00N 38°19' E 015°40'713.0
2017-Oct-18 03:30N 38°25' E 015°37'612.8
2017-Oct-18 03:01N 38°31' E 015°33'712.7
2017-Oct-18 02:27N 38°37' E 015°28'612.5
2017-Oct-18 02:00N 38°42' E 015°25'612.5
2017-Oct-18 01:30N 38°47' E 015°21'612.6
2017-Oct-18 01:01N 38°53' E 015°17'712.8
2017-Oct-18 00:27N 38°59' E 015°13'2212.5
2017-Oct-17 22:42N 39°18' E 014°59'212.5
2017-Oct-17 22:31N 39°20' E 014°57'712.6
2017-Oct-17 21:59N 39°26' E 014°53'5612.8
2017-Oct-17 17:34N 40°16' E 014°19'313.0
2017-Oct-17 17:19N 40°19' E 014°17'413.2
2017-Oct-17 17:00N 40°22' E 014°15'713.2
2017-Oct-17 16:30N 40°28' E 014°11'612.5
2017-Oct-17 16:00N 40°35' E 014°10'713.5
2017-Oct-17 15:30N 40°41' E 014°13'713.8
2017-Oct-17 15:00N 40°47' E 014°17'3 6.5
2017-Oct-17 14:30N 40°50' E 014°17'0 0.3
2017-Oct-17 13:55N 40°50' E 014°17'0 0.0
2017-Oct-17 13:28N 40°50' E 014°17'0 0.0
2017-Oct-17 12:58N 40°50' E 014°17'0 0.0
2017-Oct-17 12:28N 40°50' E 014°17'0 0.0
2017-Oct-17 11:58N 40°50' E 014°17'0 0.0
2017-Oct-17 11:25N 40°50' E 014°17'0 0.0
2017-Oct-17 10:55N 40°50' E 014°17'0 0.0
2017-Oct-17 09:43N 40°50' E 014°17'0 0.0
2017-Oct-17 09:21N 40°50' E 014°17'0 0.0
2017-Oct-17 08:54N 40°50' E 014°17'0 0.0
2017-Oct-17 07:51N 40°50' E 014°17'0 0.0
2017-Oct-17 05:51N 40°50' E 014°17'0 0.0
2017-Oct-16 21:33N 40°50' E 014°17'0 0.0
2017-Oct-16 21:27N 40°50' E 014°17'0 0.0
2017-Oct-16 14:00N 40°50' E 014°17'0 0.0
2017-Oct-16 13:30N 40°50' E 014°17'0 0.0
2017-Oct-16 13:00N 40°50' E 014°17'0 0.0
2017-Oct-16 12:27N 40°50' E 014°17'0 0.0
2017-Oct-16 11:57N 40°50' E 014°17'0 0.0
2017-Oct-16 11:30N 40°50' E 014°17'0 0.0
2017-Oct-16 10:33N 40°50' E 014°17'0 0.1
2017-Oct-16 10:22N 40°50' E 014°17'1 3.4
2017-Oct-16 10:00N 40°49' E 014°17'3 6.8
2017-Oct-16 09:30N 40°46' E 014°16'0 0.2
2017-Oct-16 09:00N 40°46' E 014°16'0 0.2
2017-Oct-16 08:30N 40°46' E 014°16'0 0.6
2017-Oct-16 07:59N 40°45' E 014°16'3 5.7
2017-Oct-16 07:30N 40°43' E 014°14'4 7.5
2017-Oct-16 07:00N 40°39' E 014°12'4 7.4
2017-Oct-16 06:30N 40°36' E 014°11'10 9.2
2017-Oct-16 05:28N 40°26' E 014°12'5410.6
2017-Oct-16 00:21N 39°39' E 014°45'410.3
2017-Oct-15 23:56N 39°35' E 014°48'4410.3
2017-Oct-15 19:39N 38°56' E 015°14'110.2
2017-Oct-15 19:30N 38°55' E 015°15'610.0
2017-Oct-15 18:53N 38°49' E 015°19'4 9.6
2017-Oct-15 18:30N 38°46' E 015°22'510.1
2017-Oct-15 18:00N 38°42' E 015°25'510.6
2017-Oct-15 17:30N 38°37' E 015°28'510.9
2017-Oct-15 17:00N 38°33' E 015°32'611.1
2017-Oct-15 16:30N 38°28' E 015°35'611.4
2017-Oct-15 16:00N 38°23' E 015°38'611.3
2017-Oct-15 15:30N 38°17' E 015°41'510.9
2017-Oct-15 15:00N 38°13' E 015°37'1211.7
2017-Oct-15 14:00N 38°01' E 015°37'510.5
2017-Oct-15 13:30N 37°57' E 015°39'511.0
2017-Oct-15 13:00N 37°52' E 015°43'510.9
2017-Oct-15 12:30N 37°49' E 015°49'611.3
2017-Oct-15 12:00N 37°48' E 015°56'510.9
2017-Oct-15 11:30N 37°47' E 016°03'710.7
2017-Oct-15 10:52N 37°45' E 016°11'510.4
2017-Oct-15 10:22N 37°44' E 016°18'14010.9
2017-Oct-14 21:32N 37°05' E 019°07'3910.7
2017-Oct-14 17:52N 36°55' E 019°54'170 8.5
2017-Oct-13 21:45N 37°03' E 023°27'2710.9
2017-Oct-13 19:18N 37°28' E 023°39'311.6
2017-Oct-13 19:00N 37°31' E 023°41'611.8
2017-Oct-13 18:30N 37°37' E 023°42'611.4
2017-Oct-13 18:00N 37°43' E 023°41'611.4
2017-Oct-13 17:30N 37°48' E 023°38'713.8
2017-Oct-13 17:00N 37°55' E 023°37'3 5.7
2017-Oct-13 16:30N 37°57' E 023°35'0 0.3
2017-Oct-13 15:59N 37°57' E 023°35'0 0.0
2017-Oct-13 15:29N 37°57' E 023°35'0 0.0
2017-Oct-13 14:59N 37°57' E 023°35'0 0.0
2017-Oct-13 14:30N 37°57' E 023°35'0 0.0
2017-Oct-13 14:00N 37°57' E 023°35'0 0.0
2017-Oct-13 13:29N 37°57' E 023°35'0 0.0
2017-Oct-13 12:59N 37°57' E 023°35'0 0.0
2017-Oct-13 12:29N 37°57' E 023°35'0 0.0
2017-Oct-13 11:56N 37°57' E 023°35'0 0.0
2017-Oct-13 11:29N 37°57' E 023°35'0 0.0
2017-Oct-13 10:59N 37°57' E 023°35'0 0.0
2017-Oct-13 10:26N 37°57' E 023°35'0 0.0
2017-Oct-13 09:59N 37°57' E 023°35'0 0.0
2017-Oct-13 09:29N 37°57' E 023°35'0 0.0
2017-Oct-13 08:57N 37°57' E 023°35'0 0.0
2017-Oct-13 08:30N 37°57' E 023°35'0 0.0
2017-Oct-13 07:58N 37°57' E 023°35'0 0.0
2017-Oct-13 07:25N 37°57' E 023°35'0 0.0
2017-Oct-13 06:58N 37°57' E 023°35'0 0.0
2017-Oct-13 06:28N 37°57' E 023°35'0 0.0
2017-Oct-13 05:58N 37°57' E 023°35'0 0.0
2017-Oct-13 05:25N 37°57' E 023°35'0 0.0
2017-Oct-13 04:58N 37°57' E 023°35'0 0.0
2017-Oct-13 04:28N 37°57' E 023°35'0 0.0
2017-Oct-13 03:58N 37°57' E 023°35'0 0.0
2017-Oct-13 03:28N 37°57' E 023°35'0 0.0
2017-Oct-13 02:58N 37°57' E 023°35'0 0.0
2017-Oct-13 02:28N 37°57' E 023°35'0 0.0
2017-Oct-13 01:58N 37°57' E 023°35'0 0.0
2017-Oct-13 01:28N 37°57' E 023°35'0 0.0
2017-Oct-13 00:58N 37°57' E 023°35'0 0.0
2017-Oct-13 00:28N 37°57' E 023°35'0 0.0
2017-Oct-12 23:58N 37°57' E 023°35'0 0.0
2017-Oct-12 23:28N 37°57' E 023°35'0 0.0
2017-Oct-12 22:59N 37°57' E 023°35'0 0.0
2017-Oct-12 22:29N 37°57' E 023°35'0 0.0
2017-Oct-12 21:59N 37°57' E 023°35'0 0.0
2017-Oct-12 21:29N 37°57' E 023°35'0 0.0
2017-Oct-12 20:59N 37°57' E 023°35'0 0.0
2017-Oct-12 20:29N 37°57' E 023°35'1 2.0
2017-Oct-12 20:00N 37°56' E 023°35'2 4.1
2017-Oct-12 19:30N 37°55' E 023°36'0 0.4
2017-Oct-12 19:00N 37°55' E 023°36'0 0.5
2017-Oct-12 18:30N 37°55' E 023°36'4 8.8
2017-Oct-12 18:00N 37°51' E 023°39'713.4
2017-Oct-12 17:31N 37°45' E 023°42'713.5
2017-Oct-12 17:00N 37°39' E 023°46'814.7
2017-Oct-12 16:30N 37°31' E 023°44'815.2
2017-Oct-12 15:57N 37°23' E 023°42'48411.0
2017-Oct-10 19:56N 40°33' E 014°09'614.3
2017-Oct-10 19:31N 40°38' E 014°11'714.2
2017-Oct-10 19:01N 40°45' E 014°15'510.7
2017-Oct-10 18:30N 40°50' E 014°17'0 0.0
2017-Oct-09 13:39N 40°50' E 014°17'0 2.3
2017-Oct-09 13:29N 40°50' E 014°17'3 6.4
2017-Oct-09 13:00N 40°47' E 014°16'612.0
2017-Oct-09 12:30N 40°42' E 014°13'612.2
2017-Oct-09 12:00N 40°36' E 014°10'1814.5
2017-Oct-09 10:47N 40°19' E 014°17'6214.9
2017-Oct-09 06:36N 39°24' E 014°56'214.0
2017-Oct-09 06:29N 39°23' E 014°57'2414.8
2017-Oct-09 04:53N 39°02' E 015°11'715.3
2017-Oct-09 04:24N 38°56' E 015°16'615.2
2017-Oct-09 03:59N 38°50' E 015°20'715.0
2017-Oct-09 03:30N 38°44' E 015°25'714.8
2017-Oct-09 03:00N 38°37' E 015°29'714.5
2017-Oct-09 02:30N 38°31' E 015°33'714.4
2017-Oct-09 02:00N 38°24' E 015°37'714.3
2017-Oct-09 01:31N 38°18' E 015°41'510.7
2017-Oct-09 01:00N 38°14' E 015°37'  
Track history (hours):
 
Tides and Currents Weather Stations Pressure Air Temp Water Temp Dewpoint Dewpoint Depression Visibility Wind Speed Wind Dir Waves Ship Positions

Bavaria

Last reported at 2017-Oct-19 00:46 UTC. Time now 2017-Oct-19 03:46 UTC.
Position N 36°47' E 020°27'.

Length 159 m; draft 9.5 m.

Type: Ship (hazmat cat A). MMSI: 305192000.

Date/timePositionNaut miles runAvg speedWind from/ knotsBaromVisibWave heightAir tempDewpointWater temp
2017-Oct-19 00:46N 36°47' E 020°27'313.6
2017-Oct-19 00:30N 36°48' E 020°23'713.4
2017-Oct-19 00:00N 36°49' E 020°15'713.5
2017-Oct-18 23:31N 36°51' E 020°07'713.7
2017-Oct-18 23:00N 36°53' E 019°59'1013.7
2017-Oct-18 22:18N 36°55' E 019°47'713.6
2017-Oct-18 21:46N 36°57' E 019°38'413.8
2017-Oct-18 21:31N 36°58' E 019°34'713.9
2017-Oct-18 21:00N 36°60' E 019°25'714.4
2017-Oct-18 20:30N 37°02' E 019°17'814.8
2017-Oct-18 19:57N 37°05' E 019°07'1614.5
2017-Oct-18 18:50N 37°09' E 018°48'714.2
2017-Oct-18 18:20N 37°11' E 018°39'514.3
2017-Oct-18 18:00N 37°13' E 018°33'814.2
2017-Oct-18 17:26N 37°15' E 018°23'913.9
2017-Oct-18 16:48N 37°17' E 018°13'11712.0
2017-Oct-18 07:01N 37°53' E 015°52'012.1
2017-Oct-18 07:00N 37°53' E 015°52'612.0
2017-Oct-18 06:29N 37°54' E 015°44'711.9
2017-Oct-18 05:51N 37°60' E 015°37'513.3
2017-Oct-18 05:30N 38°04' E 015°35'612.8
2017-Oct-18 05:00N 38°11' E 015°36'5 9.7
2017-Oct-18 04:30N 38°15' E 015°38'5 9.4
2017-Oct-18 04:00N 38°19' E 015°40'713.0
2017-Oct-18 03:30N 38°25' E 015°37'612.8
2017-Oct-18 03:01N 38°31' E 015°33'712.7
2017-Oct-18 02:27N 38°37' E 015°28'612.5
2017-Oct-18 02:00N 38°42' E 015°25'612.5
2017-Oct-18 01:30N 38°47' E 015°21'612.6
2017-Oct-18 01:01N 38°53' E 015°17'712.8
2017-Oct-18 00:27N 38°59' E 015°13'2212.5
2017-Oct-17 22:42N 39°18' E 014°59'212.5
2017-Oct-17 22:31N 39°20' E 014°57'712.6
2017-Oct-17 21:59N 39°26' E 014°53'5612.8
2017-Oct-17 17:34N 40°16' E 014°19'313.0
2017-Oct-17 17:19N 40°19' E 014°17'413.2
2017-Oct-17 17:00N 40°22' E 014°15'713.2
2017-Oct-17 16:30N 40°28' E 014°11'612.5
2017-Oct-17 16:00N 40°35' E 014°10'713.5
2017-Oct-17 15:30N 40°41' E 014°13'713.8
2017-Oct-17 15:00N 40°47' E 014°17'3 6.5
2017-Oct-17 14:30N 40°50' E 014°17'0 0.3
2017-Oct-17 13:55N 40°50' E 014°17'0 0.0
2017-Oct-17 13:28N 40°50' E 014°17'0 0.0
2017-Oct-17 12:58N 40°50' E 014°17'0 0.0
2017-Oct-17 12:28N 40°50' E 014°17'0 0.0
2017-Oct-17 11:58N 40°50' E 014°17'0 0.0
2017-Oct-17 11:25N 40°50' E 014°17'0 0.0
2017-Oct-17 10:55N 40°50' E 014°17'0 0.0
2017-Oct-17 09:43N 40°50' E 014°17'0 0.0
2017-Oct-17 09:21N 40°50' E 014°17'0 0.0
2017-Oct-17 08:54N 40°50' E 014°17'0 0.0
2017-Oct-17 07:51N 40°50' E 014°17'0 0.0
2017-Oct-17 05:51N 40°50' E 014°17'0 0.0
2017-Oct-16 21:33N 40°50' E 014°17'0 0.0
2017-Oct-16 21:27N 40°50' E 014°17'0 0.0
2017-Oct-16 14:00N 40°50' E 014°17'0 0.0
2017-Oct-16 13:30N 40°50' E 014°17'0 0.0
2017-Oct-16 13:00N 40°50' E 014°17'0 0.0
2017-Oct-16 12:27N 40°50' E 014°17'0 0.0
2017-Oct-16 11:57N 40°50' E 014°17'0 0.0
2017-Oct-16 11:30N 40°50' E 014°17'0 0.0
2017-Oct-16 10:33N 40°50' E 014°17'0 0.1
2017-Oct-16 10:22N 40°50' E 014°17'1 3.4
2017-Oct-16 10:00N 40°49' E 014°17'3 6.8
2017-Oct-16 09:30N 40°46' E 014°16'0 0.2
2017-Oct-16 09:00N 40°46' E 014°16'0 0.2
2017-Oct-16 08:30N 40°46' E 014°16'0 0.6
2017-Oct-16 07:59N 40°45' E 014°16'3 5.7
2017-Oct-16 07:30N 40°43' E 014°14'4 7.5
2017-Oct-16 07:00N 40°39' E 014°12'4 7.4
2017-Oct-16 06:30N 40°36' E 014°11'10 9.2
2017-Oct-16 05:28N 40°26' E 014°12'5410.6
2017-Oct-16 00:21N 39°39' E 014°45'410.3
2017-Oct-15 23:56N 39°35' E 014°48'4410.3
2017-Oct-15 19:39N 38°56' E 015°14'110.2
2017-Oct-15 19:30N 38°55' E 015°15'610.0
2017-Oct-15 18:53N 38°49' E 015°19'4 9.6
2017-Oct-15 18:30N 38°46' E 015°22'510.1
2017-Oct-15 18:00N 38°42' E 015°25'510.6
2017-Oct-15 17:30N 38°37' E 015°28'510.9
2017-Oct-15 17:00N 38°33' E 015°32'611.1
2017-Oct-15 16:30N 38°28' E 015°35'611.4
2017-Oct-15 16:00N 38°23' E 015°38'611.3
2017-Oct-15 15:30N 38°17' E 015°41'510.9
2017-Oct-15 15:00N 38°13' E 015°37'1211.7
2017-Oct-15 14:00N 38°01' E 015°37'510.5
2017-Oct-15 13:30N 37°57' E 015°39'511.0
2017-Oct-15 13:00N 37°52' E 015°43'510.9
2017-Oct-15 12:30N 37°49' E 015°49'611.3
2017-Oct-15 12:00N 37°48' E 015°56'510.9
2017-Oct-15 11:30N 37°47' E 016°03'710.7
2017-Oct-15 10:52N 37°45' E 016°11'510.4
2017-Oct-15 10:22N 37°44' E 016°18'14010.9
2017-Oct-14 21:32N 37°05' E 019°07'3910.7
2017-Oct-14 17:52N 36°55' E 019°54'170 8.5
2017-Oct-13 21:45N 37°03' E 023°27'2710.9
2017-Oct-13 19:18N 37°28' E 023°39'311.6
2017-Oct-13 19:00N 37°31' E 023°41'611.8
2017-Oct-13 18:30N 37°37' E 023°42'611.4
2017-Oct-13 18:00N 37°43' E 023°41'611.4
2017-Oct-13 17:30N 37°48' E 023°38'713.8
2017-Oct-13 17:00N 37°55' E 023°37'3 5.7
2017-Oct-13 16:30N 37°57' E 023°35'0 0.3
2017-Oct-13 15:59N 37°57' E 023°35'0 0.0
2017-Oct-13 15:29N 37°57' E 023°35'0 0.0
2017-Oct-13 14:59N 37°57' E 023°35'0 0.0
2017-Oct-13 14:30N 37°57' E 023°35'0 0.0
2017-Oct-13 14:00N 37°57' E 023°35'0 0.0
2017-Oct-13 13:29N 37°57' E 023°35'0 0.0
2017-Oct-13 12:59N 37°57' E 023°35'0 0.0
2017-Oct-13 12:29N 37°57' E 023°35'0 0.0
2017-Oct-13 11:56N 37°57' E 023°35'0 0.0
2017-Oct-13 11:29N 37°57' E 023°35'0 0.0
2017-Oct-13 10:59N 37°57' E 023°35'0 0.0
2017-Oct-13 10:26N 37°57' E 023°35'0 0.0
2017-Oct-13 09:59N 37°57' E 023°35'0 0.0
2017-Oct-13 09:29N 37°57' E 023°35'0 0.0
2017-Oct-13 08:57N 37°57' E 023°35'0 0.0
2017-Oct-13 08:30N 37°57' E 023°35'0 0.0
2017-Oct-13 07:58N 37°57' E 023°35'0 0.0
2017-Oct-13 07:25N 37°57' E 023°35'0 0.0
2017-Oct-13 06:58N 37°57' E 023°35'0 0.0
2017-Oct-13 06:28N 37°57' E 023°35'0 0.0
2017-Oct-13 05:58N 37°57' E 023°35'0 0.0
2017-Oct-13 05:25N 37°57' E 023°35'0 0.0
2017-Oct-13 04:58N 37°57' E 023°35'0 0.0
2017-Oct-13 04:28N 37°57' E 023°35'0 0.0
2017-Oct-13 03:58N 37°57' E 023°35'0 0.0
2017-Oct-13 03:28N 37°57' E 023°35'0 0.0
2017-Oct-13 02:58N 37°57' E 023°35'0 0.0
2017-Oct-13 02:28N 37°57' E 023°35'0 0.0
2017-Oct-13 01:58N 37°57' E 023°35'0 0.0
2017-Oct-13 01:28N 37°57' E 023°35'0 0.0
2017-Oct-13 00:58N 37°57' E 023°35'0 0.0
2017-Oct-13 00:28N 37°57' E 023°35'0 0.0
2017-Oct-12 23:58N 37°57' E 023°35'0 0.0
2017-Oct-12 23:28N 37°57' E 023°35'0 0.0
2017-Oct-12 22:59N 37°57' E 023°35'0 0.0
2017-Oct-12 22:29N 37°57' E 023°35'0 0.0
2017-Oct-12 21:59N 37°57' E 023°35'0 0.0
2017-Oct-12 21:29N 37°57' E 023°35'0 0.0
2017-Oct-12 20:59N 37°57' E 023°35'0 0.0
2017-Oct-12 20:29N 37°57' E 023°35'1 2.0
2017-Oct-12 20:00N 37°56' E 023°35'2 4.1
2017-Oct-12 19:30N 37°55' E 023°36'0 0.4
2017-Oct-12 19:00N 37°55' E 023°36'0 0.5
2017-Oct-12 18:30N 37°55' E 023°36'4 8.8
2017-Oct-12 18:00N 37°51' E 023°39'713.4
2017-Oct-12 17:31N 37°45' E 023°42'713.5
2017-Oct-12 17:00N 37°39' E 023°46'814.7
2017-Oct-12 16:30N 37°31' E 023°44'815.2
2017-Oct-12 15:57N 37°23' E 023°42'48411.0
2017-Oct-10 19:56N 40°33' E 014°09'614.3
2017-Oct-10 19:31N 40°38' E 014°11'714.2
2017-Oct-10 19:01N 40°45' E 014°15'510.7
2017-Oct-10 18:30N 40°50' E 014°17'0 0.0
2017-Oct-09 13:39N 40°50' E 014°17'0 2.3
2017-Oct-09 13:29N 40°50' E 014°17'3 6.4
2017-Oct-09 13:00N 40°47' E 014°16'612.0
2017-Oct-09 12:30N 40°42' E 014°13'612.2
2017-Oct-09 12:00N 40°36' E 014°10'1814.5
2017-Oct-09 10:47N 40°19' E 014°17'6214.9
2017-Oct-09 06:36N 39°24' E 014°56'214.0
2017-Oct-09 06:29N 39°23' E 014°57'2414.8
2017-Oct-09 04:53N 39°02' E 015°11'715.3
2017-Oct-09 04:24N 38°56' E 015°16'615.2
2017-Oct-09 03:59N 38°50' E 015°20'715.0
2017-Oct-09 03:30N 38°44' E 015°25'714.8
2017-Oct-09 03:00N 38°37' E 015°29'714.5
2017-Oct-09 02:30N 38°31' E 015°33'714.4
2017-Oct-09 02:00N 38°24' E 015°37'714.3
2017-Oct-09 01:31N 38°18' E 015°41'510.7
2017-Oct-09 01:00N 38°14' E 015°37'  

Dump ship's entire track history